createdAt,value
2018-12-24T00:02:58.670Z,100.00
2018-12-24T00:05:27.228Z,100.00
2018-12-24T00:08:14.936Z,100.00
2018-12-24T00:10:43.581Z,100.00
2018-12-24T00:13:12.178Z,100.00
2018-12-24T00:15:40.743Z,100.00
2018-12-24T00:18:09.326Z,100.00
2018-12-24T00:20:37.881Z,100.00
2018-12-24T00:23:06.469Z,100.00
2018-12-24T00:25:54.140Z,99.93
2018-12-24T00:28:22.734Z,99.47
2018-12-24T00:30:51.296Z,99.26
2018-12-24T00:33:19.883Z,99.29
2018-12-24T00:35:48.431Z,99.50
2018-12-24T00:38:17.007Z,99.46
2018-12-24T00:40:45.572Z,99.38
2018-12-24T00:43:14.175Z,99.45
2018-12-24T00:45:42.724Z,99.13
2018-12-24T00:48:11.346Z,99.00
2018-12-24T00:50:39.892Z,98.38
2018-12-24T00:53:08.482Z,97.75
2018-12-24T00:55:37.072Z,97.63
2018-12-24T00:58:05.613Z,97.52
2018-12-24T01:00:34.165Z,97.68
2018-12-24T01:03:02.748Z,97.43
2018-12-24T01:05:31.311Z,96.91
2018-12-24T01:08:20.532Z,96.74
2018-12-24T01:10:49.106Z,95.43
2018-12-24T01:13:17.690Z,94.78
2018-12-24T01:15:46.276Z,94.31
2018-12-24T01:18:14.898Z,93.88
2018-12-24T01:20:43.471Z,94.01
2018-12-24T01:23:12.090Z,93.39
2018-12-24T01:25:40.664Z,92.99
2018-12-24T01:28:09.301Z,93.08
2018-12-24T01:30:37.882Z,93.15
2018-12-24T01:33:06.464Z,93.62
2018-12-24T01:35:35.022Z,93.34
2018-12-24T01:38:03.609Z,93.14
2018-12-24T01:40:32.158Z,93.31
2018-12-24T01:43:00.736Z,92.97
2018-12-24T01:45:29.296Z,92.90
2018-12-24T01:47:57.878Z,93.16
2018-12-24T01:50:26.429Z,93.00
2018-12-24T01:52:55.014Z,93.00
2018-12-24T01:55:23.567Z,93.03
2018-12-24T01:57:52.153Z,93.22
2018-12-24T02:00:20.728Z,93.40
2018-12-24T02:02:49.322Z,93.70
2018-12-24T02:05:17.885Z,93.12
2018-12-24T02:07:46.471Z,92.63
2018-12-24T02:10:15.025Z,93.18
2018-12-24T02:12:43.616Z,92.79
2018-12-24T02:15:12.176Z,92.70
2018-12-24T02:17:40.850Z,92.72
2018-12-24T02:20:09.409Z,92.85
2018-12-24T02:22:38.038Z,92.82
2018-12-24T02:25:06.634Z,92.97
2018-12-24T02:27:35.213Z,93.16
2018-12-24T02:30:24.425Z,93.43
2018-12-24T02:32:53.013Z,92.84
2018-12-24T02:35:21.570Z,92.97
2018-12-24T02:37:50.139Z,93.13
2018-12-24T02:40:18.730Z,93.02
2018-12-24T02:43:06.624Z,93.14
2018-12-24T02:45:35.187Z,93.13
2018-12-24T02:48:03.771Z,92.46
2018-12-24T02:50:32.386Z,92.49
2018-12-24T02:53:00.961Z,92.73
2018-12-24T02:55:48.895Z,92.77
2018-12-24T02:58:17.483Z,92.79
2018-12-24T03:00:46.043Z,93.00
2018-12-24T03:03:14.628Z,92.54
2018-12-24T03:05:43.209Z,92.18
2018-12-24T03:08:11.809Z,91.61
2018-12-24T03:10:40.400Z,91.56
2018-12-24T03:13:08.971Z,91.69
2018-12-24T03:15:37.574Z,91.47
2018-12-24T03:18:06.176Z,91.00
2018-12-24T03:20:34.782Z,91.05
2018-12-24T03:23:03.374Z,90.89
2018-12-24T03:25:31.969Z,90.87
2018-12-24T03:28:00.529Z,90.44
2018-12-24T03:30:49.916Z,90.53
2018-12-24T03:33:18.479Z,90.63
2018-12-24T03:35:47.075Z,90.73
2018-12-24T03:38:15.640Z,90.56
2018-12-24T03:40:44.231Z,90.91
2018-12-24T03:43:13.239Z,90.92
2018-12-24T03:45:43.105Z,91.15
2018-12-24T03:48:11.680Z,91.10
2018-12-24T03:50:40.282Z,91.22
2018-12-24T03:53:08.882Z,90.86
2018-12-24T03:55:37.468Z,90.78
2018-12-24T03:58:06.070Z,90.77
2018-12-24T04:00:34.657Z,91.01
2018-12-24T04:03:03.270Z,91.29
2018-12-24T04:05:31.857Z,91.13
2018-12-24T04:08:00.421Z,91.33
2018-12-24T04:10:29.000Z,91.38
2018-12-24T04:12:57.584Z,91.89
2018-12-24T04:15:26.172Z,91.79
2018-12-24T04:17:54.782Z,91.95
2018-12-24T04:20:23.407Z,92.35
2018-12-24T04:22:51.943Z,92.52
2018-12-24T04:25:20.530Z,92.71
2018-12-24T04:27:49.109Z,93.05
2018-12-24T04:30:17.690Z,93.23
2018-12-24T04:32:46.306Z,93.43
2018-12-24T04:35:14.877Z,94.23
2018-12-24T04:37:43.496Z,93.78
2018-12-24T04:40:12.079Z,93.65
2018-12-24T04:42:40.699Z,93.07
2018-12-24T04:45:09.279Z,92.98
2018-12-24T04:47:37.849Z,92.93
2018-12-24T04:50:06.432Z,92.10
2018-12-24T04:52:35.076Z,91.64
2018-12-24T04:55:03.653Z,91.25
2018-12-24T04:57:32.250Z,91.42
2018-12-24T05:00:00.831Z,91.60
2018-12-24T05:02:29.412Z,91.32
2018-12-24T05:04:57.982Z,91.13
2018-12-24T05:07:26.549Z,91.41
2018-12-24T05:09:55.144Z,92.18
2018-12-24T05:12:23.720Z,92.07
2018-12-24T05:14:52.306Z,91.97
2018-12-24T05:17:20.896Z,91.63
2018-12-24T05:19:49.483Z,91.31
2018-12-24T05:22:18.038Z,91.24
2018-12-24T05:24:46.622Z,90.46
2018-12-24T05:27:15.196Z,90.74
2018-12-24T05:29:43.779Z,90.81
2018-12-24T05:32:12.343Z,90.91
2018-12-24T05:34:40.904Z,90.39
2018-12-24T05:37:09.487Z,90.48
2018-12-24T05:39:38.048Z,90.82
2018-12-24T05:42:06.626Z,90.91
2018-12-24T05:44:35.195Z,90.99
2018-12-24T05:47:03.777Z,90.82
2018-12-24T05:49:32.344Z,90.92
2018-12-24T05:52:00.926Z,91.25
2018-12-24T05:54:29.489Z,91.48
2018-12-24T05:56:58.061Z,91.36
2018-12-24T05:59:26.618Z,91.59
2018-12-24T06:01:55.205Z,91.90
2018-12-24T06:04:23.762Z,91.96
2018-12-24T06:06:52.346Z,92.12
2018-12-24T06:09:20.914Z,91.89
2018-12-24T06:11:49.500Z,91.70
2018-12-24T06:14:18.058Z,92.40
2018-12-24T06:16:46.641Z,91.37
2018-12-24T06:19:15.226Z,90.24
2018-12-24T06:21:43.808Z,89.96
2018-12-24T06:24:12.393Z,89.13
2018-12-24T06:26:40.991Z,88.28
2018-12-24T06:29:09.560Z,87.63
2018-12-24T06:31:38.147Z,87.88
2018-12-24T06:34:06.696Z,86.95
2018-12-24T06:36:35.275Z,86.06
2018-12-24T06:39:24.469Z,85.76
2018-12-24T06:41:53.119Z,85.15
2018-12-24T06:44:21.699Z,84.52
2018-12-24T06:46:50.298Z,83.19
2018-12-24T06:49:18.858Z,81.84
2018-12-24T06:51:47.462Z,79.82
2018-12-24T06:54:16.027Z,79.75
2018-12-24T06:56:44.613Z,80.30
2018-12-24T06:59:13.180Z,80.91
2018-12-24T07:01:41.788Z,82.75
2018-12-24T07:04:10.360Z,82.34
2018-12-24T07:06:38.945Z,82.89
2018-12-24T07:09:07.538Z,84.05
2018-12-24T07:11:36.137Z,84.22
2018-12-24T07:14:04.709Z,84.47
2018-12-24T07:16:33.308Z,85.01
2018-12-24T07:19:01.895Z,85.15
2018-12-24T07:21:49.614Z,85.62
2018-12-24T07:24:18.250Z,86.23
2018-12-24T07:26:46.827Z,86.43
2018-12-24T07:29:15.387Z,86.99
2018-12-24T07:31:43.966Z,87.01
2018-12-24T07:34:12.530Z,86.80
2018-12-24T07:36:41.131Z,87.38
2018-12-24T07:39:09.700Z,88.09
2018-12-24T07:41:38.293Z,87.94
2018-12-24T07:44:06.846Z,87.45
2018-12-24T07:46:35.429Z,87.69
2018-12-24T07:49:03.981Z,88.49
2018-12-24T07:51:32.599Z,89.05
2018-12-24T07:54:01.175Z,90.59
2018-12-24T07:56:29.753Z,91.05
2018-12-24T07:58:58.420Z,91.47
2018-12-24T08:01:27.001Z,91.58
2018-12-24T08:03:55.586Z,91.81
2018-12-24T08:06:24.134Z,91.39
2018-12-24T08:08:52.720Z,91.08
2018-12-24T08:11:21.288Z,90.15
2018-12-24T08:13:49.989Z,90.11
2018-12-24T08:16:18.559Z,89.63
2018-12-24T08:19:06.495Z,89.02
2018-12-24T08:21:35.130Z,88.68
2018-12-24T08:24:03.722Z,88.89
2018-12-24T08:26:32.273Z,89.08
2018-12-24T08:29:00.854Z,90.11
2018-12-24T08:34:16.859Z,90.55
2018-12-24T08:36:45.425Z,90.21
2018-12-24T08:39:14.071Z,89.04
2018-12-24T08:41:42.590Z,89.35
2018-12-24T08:44:11.185Z,88.90
2018-12-24T08:46:39.743Z,88.42
2018-12-24T08:49:08.341Z,88.03
2018-12-24T08:54:26.017Z,86.00
2018-12-24T08:56:54.594Z,86.08
2018-12-24T08:59:23.145Z,85.79
2018-12-24T09:01:51.714Z,85.19
2018-12-24T09:04:20.313Z,84.83
2018-12-24T09:06:48.953Z,84.71
2018-12-24T09:09:18.982Z,84.08
2018-12-24T09:11:47.804Z,84.36
2018-12-24T09:14:35.504Z,85.13
2018-12-24T09:17:04.059Z,85.12
2018-12-24T09:19:32.642Z,84.21
2018-12-24T09:22:01.210Z,84.20
2018-12-24T09:24:29.809Z,84.05
2018-12-24T09:26:58.376Z,84.22
2018-12-24T09:29:26.960Z,82.79
2018-12-24T09:31:55.524Z,83.25
2018-12-24T09:34:24.126Z,83.20
2018-12-24T09:36:52.698Z,84.91
2018-12-24T09:39:21.279Z,85.58
2018-12-24T09:41:49.831Z,85.77
2018-12-24T09:44:18.434Z,86.04
2018-12-24T09:46:46.994Z,85.25
2018-12-24T09:49:15.635Z,85.28
2018-12-24T09:51:44.209Z,84.75
2018-12-24T09:54:12.820Z,83.92
2018-12-24T09:56:41.459Z,83.90
2018-12-24T09:59:10.053Z,84.17
2018-12-24T10:01:38.596Z,84.19
2018-12-24T10:04:28.207Z,84.34
2018-12-24T10:09:53.027Z,85.30
2018-12-24T10:12:21.599Z,84.73
2018-12-24T10:14:50.192Z,84.80
2018-12-24T10:17:18.749Z,85.08
2018-12-24T10:19:47.332Z,85.11
2018-12-24T10:22:15.903Z,85.48
2018-12-24T10:24:44.472Z,85.47
2018-12-24T10:27:13.035Z,85.41
2018-12-24T10:30:00.986Z,85.28
2018-12-24T10:32:29.551Z,85.76
2018-12-24T10:34:58.153Z,84.86
2018-12-24T10:37:26.724Z,84.50
2018-12-24T10:40:14.581Z,84.24
2018-12-24T10:42:43.142Z,84.08
2018-12-24T10:45:16.316Z,85.65
2018-12-24T10:47:42.050Z,85.46
2018-12-24T10:50:29.829Z,84.65
2018-12-24T10:52:58.382Z,84.76
2018-12-24T10:55:26.967Z,82.76
2018-12-24T10:57:55.644Z,83.78
2018-12-24T11:00:24.236Z,83.42
2018-12-24T11:02:52.805Z,83.60
2018-12-24T11:05:21.389Z,83.47
2018-12-24T11:07:49.954Z,82.79
2018-12-24T11:10:18.537Z,83.08
2018-12-24T11:13:06.410Z,82.75
2018-12-24T11:15:34.990Z,83.27
2018-12-24T11:23:25.373Z,81.45
2018-12-24T11:25:53.967Z,80.84
2018-12-24T11:28:22.541Z,81.62
2018-12-24T11:30:51.157Z,81.54
2018-12-24T11:33:19.724Z,81.70
2018-12-24T11:35:48.323Z,81.66
2018-12-24T11:38:16.913Z,79.94
2018-12-24T11:40:45.507Z,80.13
2018-12-24T11:43:14.055Z,80.48
2018-12-24T11:45:42.664Z,81.12
2018-12-24T11:48:11.244Z,81.28
2018-12-24T11:50:39.848Z,81.48
2018-12-24T11:53:08.418Z,80.82
2018-12-24T11:55:37.013Z,81.41
2018-12-24T11:58:24.767Z,81.93
2018-12-24T12:00:53.359Z,81.10
2018-12-24T12:03:21.920Z,78.89
2018-12-24T12:05:50.505Z,79.03
2018-12-24T12:08:19.069Z,79.88
2018-12-24T12:10:47.648Z,80.06
2018-12-24T12:13:16.222Z,80.43
2018-12-24T12:16:03.977Z,80.89
2018-12-24T12:18:32.494Z,81.22
2018-12-24T12:21:20.197Z,79.73
2018-12-24T12:23:48.763Z,80.21
2018-12-24T12:26:17.348Z,79.51
2018-12-24T12:28:45.923Z,80.24
2018-12-24T12:31:14.529Z,80.45
2018-12-24T12:33:43.093Z,80.26
2018-12-24T12:36:11.675Z,79.04
2018-12-24T12:38:40.280Z,79.08
2018-12-24T12:41:08.864Z,80.31
2018-12-24T12:43:37.430Z,79.42
2018-12-24T12:46:06.020Z,80.54
2018-12-24T12:48:34.591Z,80.50
2018-12-24T12:51:03.282Z,78.97
2018-12-24T12:53:31.891Z,78.66
2018-12-24T12:56:00.521Z,79.01
2018-12-24T12:58:29.064Z,78.45
2018-12-24T13:00:57.662Z,79.74
2018-12-24T13:03:26.227Z,79.00
2018-12-24T13:05:54.815Z,79.46
2018-12-24T13:08:23.382Z,78.84
2018-12-24T13:10:51.986Z,79.39
2018-12-24T13:13:20.549Z,79.56
2018-12-24T13:15:49.137Z,78.25
2018-12-24T13:18:17.732Z,79.09
2018-12-24T13:20:46.402Z,78.33
2018-12-24T13:23:14.973Z,79.15
2018-12-24T13:25:43.571Z,79.79
2018-12-24T13:28:12.191Z,79.21
2018-12-24T13:30:40.775Z,79.78
2018-12-24T13:33:09.358Z,79.30
2018-12-24T13:35:37.954Z,79.71
2018-12-24T13:38:06.578Z,80.11
2018-12-24T13:40:35.180Z,80.01
2018-12-24T13:43:03.761Z,79.87
2018-12-24T13:45:32.367Z,79.79
2018-12-24T13:48:08.461Z,79.91
2018-12-24T13:50:37.044Z,79.47
2018-12-24T13:53:05.674Z,80.24
2018-12-24T13:55:34.265Z,80.29
2018-12-24T13:58:02.828Z,79.39
2018-12-24T14:00:31.408Z,80.30
2018-12-24T14:02:59.965Z,79.05
2018-12-24T14:08:02.406Z,80.22
2018-12-24T14:10:30.971Z,79.64
2018-12-24T14:12:59.529Z,79.69
2018-12-24T14:15:28.105Z,80.33
2018-12-24T14:17:56.681Z,80.56
2018-12-24T14:22:58.820Z,80.43
2018-12-24T14:25:27.406Z,79.93
2018-12-24T14:27:56.022Z,79.95
2018-12-24T14:30:24.602Z,79.87
2018-12-24T14:32:53.189Z,79.51
2018-12-24T14:35:41.020Z,80.36
2018-12-24T14:38:09.579Z,80.49
2018-12-24T14:40:38.171Z,80.16
2018-12-24T14:43:06.748Z,80.23
2018-12-24T14:45:35.332Z,80.70
2018-12-24T14:48:03.915Z,80.69
2018-12-24T14:50:32.497Z,81.00
2018-12-24T14:53:01.064Z,80.62
2018-12-24T14:55:29.657Z,80.99
2018-12-24T14:58:17.406Z,81.21
2018-12-24T15:00:45.987Z,81.02
2018-12-24T15:03:14.553Z,81.40
2018-12-24T15:05:43.150Z,82.27
2018-12-24T15:08:11.719Z,81.74
2018-12-24T15:10:40.301Z,81.59
2018-12-24T15:13:08.882Z,82.29
2018-12-24T15:15:37.473Z,82.37
2018-12-24T15:18:06.023Z,82.41
2018-12-24T15:20:34.585Z,82.20
2018-12-24T15:23:03.187Z,81.87
2018-12-24T15:25:31.750Z,82.35
2018-12-24T15:28:00.353Z,82.22
2018-12-24T15:30:28.901Z,81.86
2018-12-24T15:32:57.498Z,82.55
2018-12-24T15:35:26.057Z,82.48
2018-12-24T15:37:54.710Z,82.57
2018-12-24T15:40:23.274Z,83.27
2018-12-24T15:42:51.860Z,82.95
2018-12-24T15:45:20.419Z,82.64
2018-12-24T15:47:49.002Z,82.85
2018-12-24T15:50:17.645Z,83.11
2018-12-24T15:52:46.230Z,83.71
2018-12-24T15:55:14.786Z,83.39
2018-12-24T15:57:43.394Z,83.81
2018-12-24T16:00:11.981Z,83.52
2018-12-24T16:02:40.561Z,83.80
2018-12-24T16:05:09.125Z,83.76
2018-12-24T16:07:37.709Z,83.95
2018-12-24T16:10:06.347Z,84.06
2018-12-24T16:12:34.948Z,84.26
2018-12-24T16:15:03.501Z,84.05
2018-12-24T16:17:32.114Z,84.23
2018-12-24T16:20:00.695Z,84.21
2018-12-24T16:22:31.044Z,84.34
2018-12-24T16:24:59.563Z,84.49
2018-12-24T16:30:01.672Z,84.39
2018-12-24T16:32:30.250Z,84.40
2018-12-24T16:34:58.812Z,84.63
2018-12-24T16:37:27.441Z,84.74
2018-12-24T16:39:55.985Z,84.79
2018-12-24T16:42:24.572Z,84.53
2018-12-24T16:44:53.201Z,84.25
2018-12-24T16:47:21.785Z,84.64
2018-12-24T16:49:50.340Z,85.41
2018-12-24T16:52:18.920Z,85.35
2018-12-24T16:57:36.572Z,85.20
2018-12-24T17:00:25.929Z,85.25
2018-12-24T17:02:54.523Z,85.31
2018-12-24T17:05:23.088Z,85.95
2018-12-24T17:07:51.679Z,85.78
2018-12-24T17:10:20.274Z,85.44
2018-12-24T17:12:48.858Z,85.53
2018-12-24T17:15:17.432Z,85.98
2018-12-24T17:17:46.030Z,85.61
2018-12-24T17:20:14.596Z,85.92
2018-12-24T17:22:43.153Z,85.52
2018-12-24T17:25:11.736Z,85.38
2018-12-24T17:27:40.386Z,85.83
2018-12-24T17:30:08.967Z,86.00
2018-12-24T17:32:37.530Z,85.70
2018-12-24T17:35:26.906Z,85.86
2018-12-24T17:37:55.488Z,85.86
2018-12-24T17:40:24.058Z,85.56
2018-12-24T17:42:52.688Z,85.51
2018-12-24T17:45:21.300Z,85.45
2018-12-24T17:47:49.847Z,85.65
2018-12-24T17:50:37.544Z,85.58
2018-12-24T17:53:06.140Z,85.68
2018-12-24T17:55:34.713Z,87.89
2018-12-24T17:58:03.267Z,86.91
2018-12-24T18:00:31.847Z,86.93
2018-12-24T18:03:00.401Z,87.25
2018-12-24T18:05:28.981Z,87.74
2018-12-24T18:07:57.543Z,87.58
2018-12-24T18:10:26.133Z,87.42
2018-12-24T18:12:54.695Z,87.46
2018-12-24T18:15:23.288Z,87.14
2018-12-24T18:17:51.859Z,86.90
2018-12-24T18:20:20.456Z,87.29
2018-12-24T18:22:49.020Z,87.22
2018-12-24T18:25:17.633Z,86.92
2018-12-24T18:27:46.215Z,87.11
2018-12-24T18:30:14.850Z,86.96
2018-12-24T18:32:43.412Z,86.68
2018-12-24T18:35:11.985Z,86.68
2018-12-24T18:37:40.553Z,86.57
2018-12-24T18:40:09.138Z,86.89
2018-12-24T18:42:37.735Z,86.66
2018-12-24T18:45:06.376Z,86.58
2018-12-24T18:47:34.934Z,86.77
2018-12-24T18:50:24.143Z,86.63
2018-12-24T18:52:52.707Z,87.44
2018-12-24T18:55:21.303Z,86.94
2018-12-24T18:57:49.857Z,87.29
2018-12-24T19:00:18.448Z,87.08
2018-12-24T19:02:47.010Z,87.42
2018-12-24T19:05:15.615Z,87.37
2018-12-24T19:07:44.172Z,88.15
2018-12-24T19:10:12.763Z,87.76
2018-12-24T19:12:41.347Z,87.71
2018-12-24T19:15:09.929Z,87.76
2018-12-24T19:17:41.522Z,87.79
2018-12-24T19:20:29.608Z,87.85
2018-12-24T19:22:58.222Z,88.17
2018-12-24T19:25:26.793Z,87.94
2018-12-24T19:27:55.387Z,88.07
2018-12-24T19:30:23.972Z,88.52
2018-12-24T19:32:52.549Z,88.26
2018-12-24T19:38:08.566Z,87.76
2018-12-24T19:40:37.123Z,88.31
2018-12-24T19:43:05.709Z,88.25
2018-12-24T19:45:34.270Z,88.07
2018-12-24T19:48:02.877Z,88.01
2018-12-24T19:50:31.466Z,88.40
2018-12-24T19:53:00.074Z,88.11
2018-12-24T19:55:28.643Z,88.19
2018-12-24T19:57:57.277Z,88.14
2018-12-24T20:00:25.871Z,88.20
2018-12-24T20:02:54.460Z,88.26
2018-12-24T20:05:23.033Z,88.17
2018-12-24T20:07:51.629Z,88.12
2018-12-24T20:10:20.201Z,88.40
2018-12-24T20:12:48.809Z,88.24
2018-12-24T20:15:17.483Z,88.06
2018-12-24T20:17:46.114Z,88.38
2018-12-24T20:20:14.765Z,88.91
2018-12-24T20:22:43.350Z,88.52
2018-12-24T20:25:11.917Z,88.53
2018-12-24T20:27:40.525Z,88.41
2018-12-24T20:30:28.250Z,88.74
2018-12-24T20:35:30.709Z,88.25
2018-12-24T20:37:59.301Z,88.44
2018-12-24T20:40:27.916Z,88.32
2018-12-24T20:42:56.469Z,88.69
2018-12-24T20:45:25.067Z,89.01
2018-12-24T20:47:53.662Z,88.85
2018-12-24T20:50:22.267Z,88.66
2018-12-24T20:52:50.976Z,88.68
2018-12-24T20:55:19.585Z,88.87
2018-12-24T20:57:48.141Z,88.87
2018-12-24T21:00:16.726Z,88.72
2018-12-24T21:02:45.292Z,89.00
2018-12-24T21:05:13.875Z,88.97
2018-12-24T21:07:42.750Z,89.10
2018-12-24T21:10:11.355Z,89.05
2018-12-24T21:12:39.938Z,89.10
2018-12-24T21:15:08.535Z,89.11
2018-12-24T21:17:38.992Z,88.78
2018-12-24T21:20:28.349Z,88.78
2018-12-24T21:22:56.926Z,88.74
2018-12-24T21:25:25.606Z,89.25
2018-12-24T21:27:54.153Z,89.39
2018-12-24T21:30:22.814Z,89.01
2018-12-24T21:32:51.382Z,89.15
2018-12-24T21:35:19.968Z,88.91
2018-12-24T21:37:48.525Z,88.65
2018-12-24T21:40:17.320Z,88.63
2018-12-24T21:42:54.415Z,89.07
2018-12-24T21:45:16.264Z,89.24
2018-12-24T21:47:44.821Z,89.27
2018-12-24T21:53:00.916Z,88.84
2018-12-24T21:58:16.989Z,89.75
2018-12-24T22:00:45.575Z,89.97
2018-12-24T22:03:14.138Z,89.64
2018-12-24T22:05:42.843Z,89.41
2018-12-24T22:08:11.414Z,89.33
2018-12-24T22:10:39.962Z,90.46
2018-12-24T22:13:08.710Z,90.20
2018-12-24T22:15:37.351Z,89.84
2018-12-24T22:18:05.917Z,89.71
2018-12-24T22:23:27.791Z,89.84
2018-12-24T22:25:56.384Z,90.24
2018-12-24T22:28:25.139Z,90.71
2018-12-24T22:30:53.710Z,91.18
2018-12-24T22:33:22.302Z,90.70
2018-12-24T22:35:50.881Z,91.02
2018-12-24T22:38:19.655Z,90.68
2018-12-24T22:40:48.218Z,91.12
2018-12-24T22:43:16.872Z,90.96
2018-12-24T22:45:45.508Z,90.71
2018-12-24T22:48:14.106Z,90.36
2018-12-24T22:50:42.658Z,90.36
2018-12-24T22:53:11.436Z,90.33
2018-12-24T22:58:27.729Z,90.33
2018-12-24T23:03:45.340Z,90.36
2018-12-24T23:06:13.910Z,90.59
2018-12-24T23:11:36.305Z,90.54
2018-12-24T23:14:04.890Z,90.97
2018-12-24T23:16:52.666Z,91.24
2018-12-24T23:19:21.220Z,90.94
2018-12-24T23:22:11.070Z,90.71
2018-12-24T23:24:39.631Z,90.81
2018-12-24T23:27:08.257Z,90.80
2018-12-24T23:29:56.133Z,90.66
2018-12-24T23:32:24.716Z,91.02
2018-12-24T23:34:53.353Z,91.10
2018-12-24T23:37:22.004Z,91.42
2018-12-24T23:39:50.574Z,91.21
2018-12-24T23:42:20.881Z,91.38
2018-12-24T23:44:49.510Z,90.98
2018-12-24T23:47:18.173Z,90.72
2018-12-24T23:49:46.744Z,91.15
2018-12-24T23:52:15.563Z,90.79
2018-12-24T23:57:31.875Z,90.98
